Wetterdaten: Woche 23.04.07 - 29.04.07 (KW17)
Datum Zeit Temperatur Luftfeuchte Luftdruck Niederschlag
23.04.2007 00:00 12,5 C 55 % 1023 hPa 0,0 l/m
23.04.2007 01:00 10,8 C 64 % 1023 hPa 0,0 l/m
23.04.2007 02:00 9,3 C 70 % 1023 hPa 0,0 l/m
23.04.2007 03:00 8,1 C 75 % 1024 hPa 0,0 l/m
23.04.2007 04:00 7,2 C 79 % 1024 hPa 0,0 l/m
23.04.2007 05:00 6,5 C 83 % 1024 hPa 0,0 l/m
23.04.2007 06:00 6,2 C 87 % 1024 hPa 0,0 l/m
23.04.2007 07:00 6,7 C 88 % 1025 hPa 0,0 l/m
23.04.2007 08:00 10,4 C 77 % 1025 hPa 0,0 l/m
23.04.2007 09:00 14,8 C 57 % 1025 hPa 0,0 l/m
23.04.2007 10:00 18,0 C 48 % 1025 hPa 0,0 l/m
23.04.2007 11:00 20,3 C 40 % 1025 hPa 0,0 l/m
23.04.2007 12:00 21,2 C 32 % 1024 hPa 0,0 l/m
23.04.2007 13:00 22,4 C 30 % 1024 hPa 0,0 l/m
23.04.2007 14:00 22,3 C 30 % 1023 hPa 0,0 l/m
23.04.2007 15:00 23,2 C 27 % 1023 hPa 0,0 l/m
23.04.2007 16:00 23,5 C 26 % 1023 hPa 0,0 l/m
23.04.2007 17:00 23,2 C 27 % 1022 hPa 0,0 l/m
23.04.2007 18:00 23,1 C 27 % 1022 hPa 0,0 l/m
23.04.2007 19:00 21,4 C 31 % 1022 hPa 0,0 l/m
23.04.2007 20:00 18,5 C 39 % 1022 hPa 0,0 l/m
23.04.2007 21:00 16,2 C 45 % 1022 hPa 0,0 l/m
23.04.2007 22:00 14,8 C 48 % 1022 hPa 0,0 l/m
23.04.2007 23:00 13,7 C 53 % 1022 hPa 0,0 l/m
24.04.2007 00:00 12,6 C 60 % 1022 hPa 0,0 l/m
24.04.2007 01:00 12,0 C 65 % 1022 hPa 0,0 l/m
24.04.2007 02:00 11,8 C 66 % 1022 hPa 0,0 l/m
24.04.2007 03:00 10,9 C 70 % 1022 hPa 0,0 l/m
24.04.2007 04:00 9,8 C 75 % 1022 hPa 0,0 l/m
24.04.2007 05:00 8,8 C 79 % 1021 hPa 0,0 l/m
24.04.2007 06:00 8,6 C 84 % 1021 hPa 0,0 l/m
24.04.2007 07:00 8,9 C 84 % 1021 hPa 0,0 l/m
24.04.2007 08:00 9,8 C 79 % 1022 hPa 0,0 l/m
24.04.2007 09:00 12,0 C 73 % 1022 hPa 0,0 l/m
24.04.2007 10:00 14,9 C 62 % 1022 hPa 0,0 l/m
24.04.2007 11:00 16,9 C 53 % 1022 hPa 0,0 l/m
24.04.2007 12:00 19,7 C 46 % 1022 hPa 0,0 l/m
24.04.2007 13:00 21,7 C 36 % 1022 hPa 0,0 l/m
24.04.2007 14:00 22,0 C 34 % 1021 hPa 0,0 l/m
24.04.2007 15:00 22,1 C 34 % 1021 hPa 0,0 l/m
24.04.2007 16:00 22,8 C 33 % 1020 hPa 0,0 l/m
24.04.2007 17:00 22,4 C 33 % 1020 hPa 0,0 l/m
24.04.2007 18:00 22,3 C 33 % 1020 hPa 0,0 l/m
24.04.2007 19:00 21,6 C 35 % 1019 hPa 0,0 l/m
24.04.2007 20:00 19,2 C 46 % 1020 hPa 0,0 l/m
24.04.2007 21:00 16,3 C 53 % 1020 hPa 0,0 l/m
24.04.2007 22:00 14,6 C 63 % 1020 hPa 0,0 l/m
24.04.2007 23:00 13,5 C 70 % 1019 hPa 0,0 l/m
25.04.2007 00:00 12,6 C 73 % 1019 hPa 0,0 l/m
25.04.2007 01:00 11,9 C 77 % 1019 hPa 0,0 l/m
25.04.2007 02:00 11,7 C 79 % 1019 hPa 0,0 l/m
25.04.2007 03:00 11,1 C 79 % 1019 hPa 0,0 l/m
25.04.2007 04:00 10,9 C 80 % 1019 hPa 0,0 l/m
25.04.2007 05:00 10,5 C 82 % 1018 hPa 0,0 l/m
25.04.2007 06:00 10,3 C 84 % 1018 hPa 0,0 l/m
25.04.2007 07:00 10,6 C 86 % 1018 hPa 0,0 l/m
25.04.2007 08:00 13,4 C 74 % 1018 hPa 0,0 l/m
25.04.2007 09:00 16,0 C 58 % 1018 hPa 0,0 l/m
25.04.2007 10:00 18,7 C 45 % 1018 hPa 0,0 l/m
25.04.2007 11:00 20,9 C 37 % 1018 hPa 0,0 l/m
25.04.2007 12:00 22,2 C 34 % 1018 hPa 0,0 l/m
25.04.2007 13:00 22,9 C 32 % 1017 hPa 0,0 l/m
25.04.2007 14:00 23,6 C 31 % 1017 hPa 0,0 l/m
25.04.2007 15:00 23,9 C 28 % 1016 hPa 0,0 l/m
25.04.2007 16:00 24,1 C 28 % 1016 hPa 0,0 l/m
25.04.2007 17:00 23,8 C 30 % 1016 hPa 0,0 l/m
25.04.2007 18:00 22,4 C 31 % 1016 hPa 0,0 l/m
25.04.2007 19:00 21,0 C 33 % 1016 hPa 0,0 l/m
25.04.2007 20:00 19,5 C 36 % 1017 hPa 0,0 l/m
25.04.2007 21:00 17,9 C 38 % 1017 hPa 0,0 l/m
25.04.2007 22:00 16,6 C 37 % 1017 hPa 0,0 l/m
25.04.2007 23:00 15,3 C 40 % 1017 hPa 0,0 l/m
26.04.2007 00:00 13,5 C 47 % 1017 hPa 0,0 l/m
26.04.2007 01:00 12,3 C 52 % 1017 hPa 0,0 l/m
26.04.2007 02:00 11,1 C 57 % 1017 hPa 0,0 l/m
26.04.2007 03:00 10,5 C 60 % 1017 hPa 0,0 l/m
26.04.2007 04:00 9,5 C 65 % 1017 hPa 0,0 l/m
26.04.2007 05:00 8,8 C 68 % 1017 hPa 0,0 l/m
26.04.2007 06:00 8,1 C 70 % 1017 hPa 0,0 l/m
26.04.2007 07:00 8,3 C 70 % 1018 hPa 0,0 l/m
26.04.2007 08:00 10,8 C 59 % 1018 hPa 0,0 l/m
26.04.2007 09:00 13,4 C 49 % 1018 hPa 0,0 l/m
26.04.2007 10:00 16,1 C 41 % 1018 hPa 0,0 l/m
26.04.2007 11:00 18,3 C 38 % 1018 hPa 0,0 l/m
26.04.2007 12:00 19,9 C 35 % 1018 hPa 0,0 l/m
26.04.2007 13:00 21,1 C 33 % 1017 hPa 0,0 l/m
26.04.2007 14:00 22,4 C 30 % 1017 hPa 0,0 l/m
26.04.2007 15:00 23,1 C 27 % 1017 hPa 0,0 l/m
26.04.2007 16:00 23,5 C 26 % 1017 hPa 0,0 l/m
26.04.2007 17:00 23,5 C 26 % 1017 hPa 0,0 l/m
26.04.2007 18:00 23,2 C 27 % 1017 hPa 0,0 l/m
26.04.2007 19:00 21,9 C 31 % 1017 hPa 0,0 l/m
26.04.2007 20:00 19,6 C 36 % 1018 hPa 0,0 l/m
26.04.2007 21:00 16,8 C 44 % 1018 hPa 0,0 l/m
26.04.2007 22:00 15,4 C 48 % 1019 hPa 0,0 l/m
26.04.2007 23:00 14,5 C 49 % 1019 hPa 0,0 l/m
27.04.2007 00:00 14,1 C 47 % 1019 hPa 0,0 l/m
27.04.2007 01:00 13,1 C 51 % 1019 hPa 0,0 l/m
27.04.2007 02:00 11,7 C 57 % 1019 hPa 0,0 l/m
27.04.2007 03:00 10,9 C 59 % 1019 hPa 0,0 l/m
27.04.2007 04:00 10,1 C 63 % 1020 hPa 0,0 l/m
27.04.2007 05:00 9,2 C 69 % 1020 hPa 0,0 l/m
27.04.2007 06:00 8,1 C 75 % 1020 hPa 0,0 l/m
27.04.2007 07:00 8,8 C 78 % 1021 hPa 0,0 l/m
27.04.2007 08:00 12,1 C 66 % 1021 hPa 0,0 l/m
27.04.2007 09:00 15,3 C 55 % 1021 hPa 0,0 l/m
27.04.2007 10:00 18,4 C 49 % 1021 hPa 0,0 l/m
27.04.2007 11:00 20,8 C 43 % 1021 hPa 0,0 l/m
27.04.2007 12:00 22,4 C 38 % 1021 hPa 0,0 l/m
27.04.2007 13:00 23,7 C 33 % 1021 hPa 0,0 l/m
27.04.2007 14:00 24,7 C 27 % 1021 hPa 0,0 l/m
27.04.2007 15:00 25,1 C 24 % 1020 hPa 0,0 l/m
27.04.2007 16:00 25,0 C 23 % 1020 hPa 0,0 l/m
27.04.2007 17:00 24,6 C 23 % 1019 hPa 0,0 l/m
27.04.2007 18:00 23,9 C 24 % 1019 hPa 0,0 l/m
27.04.2007 19:00 21,3 C 34 % 1020 hPa 0,0 l/m
27.04.2007 20:00 19,2 C 38 % 1020 hPa 0,0 l/m
27.04.2007 21:00 16,8 C 47 % 1021 hPa 0,0 l/m
27.04.2007 22:00 15,0 C 55 % 1021 hPa 0,0 l/m
27.04.2007 23:00 13,9 C 60 % 1021 hPa 0,0 l/m
28.04.2007 00:00 12,4 C 66 % 1021 hPa 0,0 l/m
28.04.2007 01:00 11,2 C 72 % 1022 hPa 0,0 l/m
28.04.2007 02:00 10,2 C 78 % 1022 hPa 0,0 l/m
28.04.2007 03:00 9,5 C 82 % 1022 hPa 0,0 l/m
28.04.2007 04:00 9,0 C 86 % 1022 hPa 0,0 l/m
28.04.2007 05:00 8,6 C 89 % 1022 hPa 0,0 l/m
28.04.2007 06:00 8,2 C 91 % 1022 hPa 0,0 l/m
28.04.2007 07:00 9,0 C 93 % 1023 hPa 0,0 l/m
28.04.2007 08:00 12,0 C 86 % 1023 hPa 0,0 l/m
28.04.2007 09:00 15,7 C 71 % 1023 hPa 0,0 l/m
28.04.2007 10:00 18,7 C 57 % 1023 hPa 0,0 l/m
28.04.2007 11:00 20,8 C 50 % 1023 hPa 0,0 l/m
28.04.2007 12:00 22,3 C 43 % 1022 hPa 0,0 l/m
28.04.2007 13:00 23,4 C 32 % 1022 hPa 0,0 l/m
28.04.2007 14:00 24,7 C 29 % 1022 hPa 0,0 l/m
28.04.2007 15:00 24,1 C 28 % 1021 hPa 0,0 l/m
28.04.2007 16:00 24,6 C 25 % 1020 hPa 0,0 l/m
28.04.2007 17:00 25,0 C 22 % 1020 hPa 0,0 l/m
28.04.2007 18:00 24,5 C 23 % 1019 hPa 0,0 l/m
28.04.2007 19:00 22,9 C 24 % 1019 hPa 0,0 l/m
28.04.2007 20:00 20,2 C 32 % 1019 hPa 0,0 l/m
28.04.2007 21:00 17,3 C 38 % 1020 hPa 0,0 l/m
28.04.2007 22:00 16,2 C 43 % 1020 hPa 0,0 l/m
28.04.2007 23:00 15,4 C 44 % 1020 hPa 0,0 l/m
29.04.2007 00:00 14,3 C 49 % 1020 hPa 0,0 l/m
29.04.2007 01:00 12,7 C 56 % 1020 hPa 0,0 l/m
29.04.2007 02:00 11,6 C 61 % 1019 hPa 0,0 l/m
29.04.2007 03:00 10,6 C 67 % 1019 hPa 0,0 l/m
29.04.2007 04:00 9,4 C 73 % 1019 hPa 0,0 l/m
29.04.2007 05:00 8,6 C 79 % 1019 hPa 0,0 l/m
29.04.2007 06:00 8,0 C 82 % 1019 hPa 0,0 l/m
29.04.2007 07:00 9,0 C 83 % 1019 hPa 0,0 l/m
29.04.2007 08:00 13,0 C 67 % 1019 hPa 0,0 l/m
29.04.2007 09:00 16,7 C 54 % 1018 hPa 0,0 l/m
29.04.2007 10:00 19,7 C 43 % 1018 hPa 0,0 l/m
29.04.2007 11:00 21,7 C 35 % 1018 hPa 0,0 l/m
29.04.2007 12:00 23,5 C 28 % 1018 hPa 0,0 l/m
29.04.2007 13:00 23,9 C 24 % 1017 hPa 0,0 l/m
29.04.2007 14:00 23,8 C 24 % 1017 hPa 0,0 l/m
29.04.2007 15:00 24,3 C 22 % 1016 hPa 0,0 l/m
29.04.2007 16:00 24,0 C 22 % 1015 hPa 0,0 l/m
29.04.2007 17:00 23,4 C 22 % 1015 hPa 0,0 l/m
29.04.2007 18:00 22,5 C 23 % 1014 hPa 0,0 l/m
29.04.2007 19:00 20,9 C 26 % 1014 hPa 0,0 l/m
29.04.2007 20:00 19,2 C 31 % 1014 hPa 0,0 l/m
29.04.2007 21:00 17,5 C 36 % 1014 hPa 0,0 l/m
29.04.2007 22:00 16,3 C 38 % 1014 hPa 0,0 l/m
29.04.2007 23:00 15,3 C 38 % 1014 hPa 0,0 l/m
Min-Datum _ 23.04.07 27.04.07 29.04.07 -
_ Min-Zeit 07:06 17:28 17:07 -
Minimum _ 6,0 C 22 % 1014 hPa -
Max-Datum _ 27.04.07 28.04.07 23.04.07 23.04.07
_ Max-Zeit 15:48 07:22 07:36 00:00
Maximum _ 25,4 C 94 % 1025 hPa 0,0 l/m
Durchschnitt _ 16,5 C 50 % 1020 hPa #0,0 l/m

Durchschnitt Minimum Temp.15,8 C
Durchschnitt Maximum Temp.17,2 C